createdAt,value
2022-11-15T00:02:06.866Z,12.03
2022-11-15T00:04:51.830Z,11.67
2022-11-15T00:07:55.176Z,10.53
2022-11-15T00:10:41.348Z,11.77
2022-11-15T00:13:26.397Z,11.83
2022-11-15T00:16:11.787Z,11.43
2022-11-15T00:18:56.603Z,10.63
2022-11-15T00:21:42.101Z,11.20
2022-11-15T00:24:27.057Z,10.77
2022-11-15T00:27:12.481Z,10.30
2022-11-15T00:29:57.775Z,9.67
2022-11-15T00:32:42.955Z,9.77
2022-11-15T00:35:27.856Z,10.37
2022-11-15T00:38:12.896Z,9.77
2022-11-15T00:40:58.083Z,10.27
2022-11-15T00:43:43.055Z,9.80
2022-11-15T00:46:28.283Z,9.87
2022-11-15T00:49:13.156Z,8.73
2022-11-15T00:51:58.037Z,10.10
2022-11-15T00:54:43.003Z,9.50
2022-11-15T00:57:28.224Z,10.27
2022-11-15T01:00:14.560Z,9.67
2022-11-15T01:03:01.149Z,9.40
2022-11-15T01:05:46.247Z,9.73
2022-11-15T01:08:31.354Z,10.10
2022-11-15T01:11:16.822Z,9.80
2022-11-15T01:14:02.043Z,10.15
2022-11-15T01:16:47.103Z,9.83
2022-11-15T01:19:32.106Z,9.93
2022-11-15T01:22:17.568Z,9.63
2022-11-15T01:25:02.498Z,9.93
2022-11-15T01:27:47.862Z,10.07
2022-11-15T01:30:33.307Z,10.63
2022-11-15T01:33:18.404Z,10.38
2022-11-15T01:36:08.914Z,10.82
2022-11-15T01:39:03.165Z,10.93
2022-11-15T01:41:48.217Z,11.15
2022-11-15T01:44:44.221Z,11.30
2022-11-15T01:47:32.202Z,11.63
2022-11-15T01:50:23.003Z,10.77
2022-11-15T01:53:08.384Z,11.40
2022-11-15T01:55:54.849Z,11.35
2022-11-15T01:58:41.950Z,11.02
2022-11-15T02:01:27.748Z,10.70
2022-11-15T02:04:34.730Z,10.90
2022-11-15T02:07:22.635Z,10.97
2022-11-15T02:10:12.094Z,11.05
2022-11-15T02:12:59.503Z,10.90
2022-11-15T02:16:09.293Z,11.02
2022-11-15T02:19:41.360Z,11.10
2022-11-15T02:22:35.578Z,11.33
2022-11-15T02:25:39.183Z,11.00
2022-11-15T02:28:49.256Z,11.05
2022-11-15T02:31:52.402Z,11.43
2022-11-15T02:34:49.248Z,11.47
2022-11-15T02:37:46.058Z,11.43
2022-11-15T02:40:38.365Z,11.57
2022-11-15T02:43:32.619Z,10.97
2022-11-15T02:46:24.191Z,11.00
2022-11-15T02:49:12.217Z,11.47
2022-11-15T02:51:57.420Z,11.10
2022-11-15T02:54:42.430Z,11.63
2022-11-15T02:57:52.238Z,11.60
2022-11-15T03:00:48.103Z,11.67
2022-11-15T03:03:58.100Z,12.20
2022-11-15T03:07:04.834Z,12.37
2022-11-15T03:10:07.468Z,12.23
2022-11-15T03:13:00.827Z,12.73
2022-11-15T03:15:56.024Z,11.98
2022-11-15T03:18:50.908Z,12.15
2022-11-15T03:21:38.236Z,11.98
2022-11-15T03:24:26.276Z,12.55
2022-11-15T03:27:16.524Z,11.85
2022-11-15T03:30:06.324Z,12.02
2022-11-15T03:32:57.262Z,11.68
2022-11-15T03:35:45.490Z,11.77
2022-11-15T03:38:35.060Z,11.32
2022-11-15T03:41:45.077Z,11.98
2022-11-15T03:44:57.654Z,11.60
2022-11-15T03:47:45.230Z,12.70
2022-11-15T03:50:30.565Z,11.82
2022-11-15T03:53:15.708Z,11.95
2022-11-15T03:56:01.029Z,13.23
2022-11-15T03:58:45.831Z,12.90
2022-11-15T04:01:31.297Z,13.07
2022-11-15T04:04:16.561Z,12.70
2022-11-15T04:07:01.862Z,12.98
2022-11-15T04:09:47.105Z,13.43
2022-11-15T04:12:34.536Z,13.07
2022-11-15T04:15:23.110Z,13.18
2022-11-15T04:18:08.312Z,13.55
2022-11-15T04:20:53.772Z,13.63
2022-11-15T04:23:38.651Z,13.57
2022-11-15T04:26:24.574Z,13.25
2022-11-15T04:29:09.725Z,13.80
2022-11-15T04:31:55.134Z,13.60
2022-11-15T04:34:40.426Z,14.45
2022-11-15T04:37:25.407Z,13.88
2022-11-15T04:40:10.582Z,16.33
2022-11-15T04:43:00.801Z,14.25
2022-11-15T04:45:48.628Z,15.55
2022-11-15T04:48:34.077Z,15.30
2022-11-15T04:51:19.705Z,17.10
2022-11-15T04:54:04.892Z,18.38
2022-11-15T04:56:50.151Z,19.55
2022-11-15T04:59:35.033Z,19.65
2022-11-15T05:02:20.081Z,20.45
2022-11-15T05:05:05.427Z,19.67
2022-11-15T05:07:51.255Z,20.45
2022-11-15T05:10:36.375Z,18.73
2022-11-15T05:13:21.320Z,17.25
2022-11-15T05:16:06.886Z,16.92
2022-11-15T05:18:55.592Z,16.58
2022-11-15T05:21:40.694Z,16.75
2022-11-15T05:24:25.593Z,15.70
2022-11-15T05:27:10.619Z,15.43
2022-11-15T05:29:56.002Z,16.25
2022-11-15T05:32:41.824Z,16.75
2022-11-15T05:35:35.434Z,16.00
2022-11-15T05:38:20.465Z,15.48
2022-11-15T05:41:06.873Z,16.23
2022-11-15T05:43:52.570Z,16.35
2022-11-15T05:46:39.655Z,15.88
2022-11-15T05:49:27.772Z,15.98
2022-11-15T05:52:16.604Z,15.85
2022-11-15T05:55:03.880Z,15.18
2022-11-15T05:57:49.167Z,16.08
2022-11-15T06:00:34.572Z,15.77
2022-11-15T06:03:19.798Z,15.77
2022-11-15T06:06:04.856Z,15.95
2022-11-15T06:08:50.064Z,16.00
2022-11-15T06:11:35.476Z,15.73
2022-11-15T06:14:20.492Z,16.45
2022-11-15T06:17:11.048Z,15.77
2022-11-15T06:19:56.739Z,15.85
2022-11-15T06:22:41.414Z,15.60
2022-11-15T06:25:27.980Z,16.05
2022-11-15T06:28:12.974Z,15.43
2022-11-15T06:31:06.429Z,15.70
2022-11-15T06:33:51.571Z,22.95
2022-11-15T06:36:36.777Z,15.32
2022-11-15T06:39:21.829Z,14.73
2022-11-15T06:42:08.670Z,13.63
2022-11-15T06:44:53.678Z,13.73
2022-11-15T06:47:46.870Z,13.02
2022-11-15T06:50:32.059Z,12.95
2022-11-15T06:53:17.524Z,12.25
2022-11-15T06:56:07.369Z,13.27
2022-11-15T06:58:52.359Z,12.52
2022-11-15T07:01:37.404Z,12.68
2022-11-15T07:04:22.705Z,12.27
2022-11-15T07:07:07.846Z,11.95
2022-11-15T07:09:53.012Z,12.80
2022-11-15T07:12:38.329Z,13.05
2022-11-15T07:15:26.100Z,12.23
2022-11-15T07:18:11.319Z,12.48
2022-11-15T07:20:56.617Z,13.52
2022-11-15T07:23:41.703Z,12.35
2022-11-15T07:26:27.037Z,11.98
2022-11-15T07:29:12.582Z,12.00
2022-11-15T07:32:04.208Z,11.73
2022-11-15T07:34:49.439Z,13.55
2022-11-15T07:37:34.346Z,11.13
2022-11-15T07:40:19.099Z,10.77
2022-11-15T07:43:08.237Z,10.68
2022-11-15T07:45:58.651Z,10.07
2022-11-15T07:48:45.547Z,9.60
2022-11-15T07:51:30.896Z,10.30
2022-11-15T07:54:16.324Z,9.73
2022-11-15T07:57:06.835Z,9.63
2022-11-15T07:59:52.833Z,9.52
2022-11-15T08:02:37.799Z,9.07
2022-11-15T08:05:23.216Z,8.98
2022-11-15T08:08:11.146Z,8.70
2022-11-15T08:10:58.471Z,7.70
2022-11-15T08:13:43.309Z,8.30
2022-11-15T08:16:28.267Z,8.02
2022-11-15T08:19:13.151Z,7.63
2022-11-15T08:21:58.405Z,7.88
2022-11-15T08:24:43.465Z,7.20
2022-11-15T08:27:28.312Z,7.60
2022-11-15T08:30:14.066Z,7.30
2022-11-15T08:32:59.438Z,7.20
2022-11-15T08:35:45.103Z,7.07
2022-11-15T08:38:30.482Z,7.10
2022-11-15T08:41:28.506Z,6.40
2022-11-15T08:44:13.862Z,5.38
2022-11-15T08:46:59.209Z,4.75
2022-11-15T08:49:44.723Z,4.55
2022-11-15T08:52:29.770Z,4.78
2022-11-15T08:55:16.897Z,4.30
2022-11-15T08:58:02.554Z,4.50
2022-11-15T09:00:47.830Z,4.78
2022-11-15T09:03:32.947Z,4.10
2022-11-15T09:06:17.701Z,4.50
2022-11-15T09:09:03.776Z,4.00
2022-11-15T09:11:49.060Z,4.15
2022-11-15T09:14:35.095Z,3.70
2022-11-15T09:17:24.662Z,3.95
2022-11-15T09:20:10.347Z,3.85
2022-11-15T09:22:55.017Z,3.58
2022-11-15T09:25:40.494Z,3.30
2022-11-15T09:28:25.416Z,3.50
2022-11-15T09:31:10.625Z,3.42
2022-11-15T09:33:56.495Z,3.10
2022-11-15T09:36:41.584Z,3.10
2022-11-15T09:39:27.097Z,3.30
2022-11-15T09:42:33.304Z,3.00
2022-11-15T09:45:29.540Z,2.83
2022-11-15T09:48:39.230Z,3.03
2022-11-15T09:51:30.078Z,2.72
2022-11-15T09:54:52.349Z,2.60
2022-11-15T09:57:36.051Z,2.90
2022-11-15T10:00:46.084Z,2.58
2022-11-15T10:03:35.652Z,2.58
2022-11-15T10:06:26.233Z,2.30
2022-11-15T10:09:23.797Z,2.30
2022-11-15T10:12:11.069Z,2.25
2022-11-15T10:15:15.159Z,2.47
2022-11-15T10:18:44.688Z,2.50
2022-11-15T10:21:45.148Z,2.10
2022-11-15T10:24:41.409Z,2.40
2022-11-15T10:27:26.607Z,2.20
2022-11-15T10:30:14.477Z,1.73
2022-11-15T10:33:11.184Z,2.45
2022-11-15T10:36:17.798Z,1.90
2022-11-15T10:39:04.082Z,2.10
2022-11-15T10:41:50.099Z,2.08
2022-11-15T10:44:43.675Z,2.20
2022-11-15T10:47:39.251Z,2.20
2022-11-15T10:50:31.414Z,2.00
2022-11-15T10:53:20.724Z,2.15
2022-11-15T10:56:14.260Z,2.10
2022-11-15T10:59:00.740Z,2.03
2022-11-15T11:01:47.925Z,2.38
2022-11-15T11:04:51.447Z,2.00
2022-11-15T11:07:38.579Z,2.08
2022-11-15T11:10:50.312Z,2.20
2022-11-15T11:13:38.167Z,2.20
2022-11-15T11:16:42.119Z,2.15
2022-11-15T11:19:49.748Z,2.40
2022-11-15T11:22:47.991Z,2.13
2022-11-15T11:25:40.673Z,2.17
2022-11-15T11:28:35.061Z,2.40
2022-11-15T11:31:39.478Z,2.38
2022-11-15T11:35:02.608Z,2.20
2022-11-15T11:37:56.353Z,2.30
2022-11-15T11:40:53.235Z,2.50
2022-11-15T11:43:56.505Z,2.25
2022-11-15T11:46:52.840Z,2.53
2022-11-15T11:49:41.307Z,2.55
2022-11-15T11:52:34.012Z,2.60
2022-11-15T11:55:42.084Z,2.38
2022-11-15T11:58:42.586Z,2.38
2022-11-15T12:01:35.244Z,2.63
2022-11-15T12:04:26.180Z,2.55
2022-11-15T12:07:33.441Z,2.20
2022-11-15T12:10:24.730Z,2.40
2022-11-15T12:13:20.350Z,2.38
2022-11-15T12:16:13.336Z,2.50
2022-11-15T12:19:02.503Z,2.78
2022-11-15T12:21:56.629Z,2.30
2022-11-15T12:24:47.037Z,2.25
2022-11-15T12:27:41.212Z,2.10
2022-11-15T12:30:32.488Z,2.40
2022-11-15T12:33:36.254Z,2.42
2022-11-15T12:36:24.179Z,2.28
2022-11-15T12:39:10.781Z,2.22
2022-11-15T12:41:55.986Z,2.08
2022-11-15T12:44:41.730Z,2.60
2022-11-15T12:47:28.015Z,2.50
2022-11-15T12:57:48.624Z,2.20
2022-11-15T13:00:33.605Z,2.33
2022-11-15T13:03:22.625Z,2.00
2022-11-15T13:06:10.572Z,2.28
2022-11-15T13:08:55.613Z,2.35
2022-11-15T13:11:56.276Z,2.45
2022-11-15T13:14:46.179Z,2.10
2022-11-15T13:17:37.510Z,2.13
2022-11-15T13:20:33.574Z,2.60
2022-11-15T13:23:18.821Z,2.10
2022-11-15T13:26:06.934Z,2.22
2022-11-15T13:28:52.868Z,2.25
2022-11-15T13:31:42.917Z,2.22
2022-11-15T13:34:50.967Z,2.25
2022-11-15T13:37:36.474Z,2.13
2022-11-15T13:40:36.744Z,2.17
2022-11-15T13:43:22.043Z,2.58
2022-11-15T13:46:27.307Z,2.30
2022-11-15T13:49:12.273Z,2.20
2022-11-15T13:51:57.457Z,2.13
2022-11-15T13:55:13.173Z,2.10
2022-11-15T13:58:01.664Z,2.10
2022-11-15T14:00:46.834Z,2.22
2022-11-15T14:03:35.733Z,2.10
2022-11-15T14:06:23.336Z,1.90
2022-11-15T14:09:11.510Z,1.98
2022-11-15T14:11:57.815Z,1.80
2022-11-15T14:14:47.582Z,2.10
2022-11-15T14:17:38.094Z,1.90
2022-11-15T14:20:26.456Z,2.08
2022-11-15T14:23:28.470Z,1.88
2022-11-15T14:26:33.329Z,1.80
2022-11-15T14:29:29.717Z,1.98
2022-11-15T14:32:21.133Z,2.00
2022-11-15T14:35:14.708Z,1.67
2022-11-15T14:37:59.928Z,2.03
2022-11-15T14:40:45.215Z,1.98
2022-11-15T14:43:30.777Z,1.90
2022-11-15T14:46:16.239Z,1.80
2022-11-15T14:49:01.103Z,2.35
2022-11-15T14:51:46.353Z,2.20
2022-11-15T14:54:31.756Z,2.22
2022-11-15T14:57:16.705Z,2.25
2022-11-15T15:00:02.134Z,2.35
2022-11-15T15:02:48.644Z,2.35
2022-11-15T15:05:35.258Z,2.40
2022-11-15T15:08:20.657Z,2.20
2022-11-15T15:11:14.184Z,2.63
2022-11-15T15:13:59.220Z,2.30
2022-11-15T15:16:44.530Z,2.45
2022-11-15T15:19:30.002Z,3.75
2022-11-15T15:22:17.551Z,2.20
2022-11-15T15:25:03.010Z,2.22
2022-11-15T15:27:48.336Z,2.13
2022-11-15T15:30:33.389Z,2.25
2022-11-15T15:33:18.425Z,2.30
2022-11-15T15:36:04.799Z,2.30
2022-11-15T15:38:49.663Z,9.23
2022-11-15T15:41:38.256Z,2.88
2022-11-15T15:44:23.664Z,2.92
2022-11-15T15:47:14.452Z,2.88
2022-11-15T15:49:59.520Z,2.80
2022-11-15T15:52:44.548Z,2.63
2022-11-15T15:55:32.386Z,2.67
2022-11-15T15:58:17.775Z,2.80
2022-11-15T16:01:02.686Z,3.10
2022-11-15T16:03:48.019Z,2.88
2022-11-15T16:06:37.728Z,3.45
2022-11-15T16:09:23.220Z,3.45
2022-11-15T16:12:08.808Z,3.53
2022-11-15T16:14:54.123Z,3.55
2022-11-15T16:17:48.138Z,3.35
2022-11-15T16:20:39.124Z,3.65
2022-11-15T16:23:24.303Z,3.63
2022-11-15T16:26:29.745Z,3.92
2022-11-15T16:29:15.197Z,3.90
2022-11-15T16:32:00.210Z,3.47
2022-11-15T16:34:49.082Z,3.85
2022-11-15T16:37:34.670Z,3.45
2022-11-15T16:40:19.630Z,3.63
2022-11-15T16:43:04.591Z,3.80
2022-11-15T16:45:51.011Z,4.10
2022-11-15T16:48:36.303Z,3.80
2022-11-15T16:51:23.530Z,3.65
2022-11-15T16:54:08.827Z,3.78
2022-11-15T16:56:54.222Z,4.70
2022-11-15T16:59:39.162Z,4.53
2022-11-15T17:02:24.718Z,4.70
2022-11-15T17:05:13.564Z,4.78
2022-11-15T17:08:02.306Z,4.82
2022-11-15T17:10:47.472Z,5.20
2022-11-15T17:13:32.778Z,5.78
2022-11-15T17:16:18.580Z,4.72
2022-11-15T17:19:04.962Z,4.47
2022-11-15T17:21:50.013Z,3.85
2022-11-15T17:24:35.210Z,3.75
2022-11-15T17:27:20.156Z,3.50
2022-11-15T17:30:07.047Z,3.63
2022-11-15T17:32:52.532Z,3.42
2022-11-15T17:35:37.271Z,3.50
2022-11-15T17:38:22.805Z,3.40
2022-11-15T17:41:12.219Z,3.67
2022-11-15T17:43:58.204Z,3.40
2022-11-15T17:46:44.298Z,3.83
2022-11-15T17:49:35.198Z,3.60
2022-11-15T17:52:20.109Z,4.00
2022-11-15T17:55:05.486Z,3.72
2022-11-15T17:57:50.834Z,3.50
2022-11-15T18:00:35.735Z,3.38
2022-11-15T18:03:21.104Z,3.50
2022-11-15T18:06:07.640Z,3.20
2022-11-15T18:08:54.354Z,3.38
2022-11-15T18:11:41.884Z,3.60
2022-11-15T18:14:27.199Z,3.55
2022-11-15T18:17:12.436Z,3.58
2022-11-15T18:19:57.382Z,3.60
2022-11-15T18:22:42.723Z,3.90
2022-11-15T18:25:28.092Z,4.00
2022-11-15T18:28:13.418Z,3.83
2022-11-15T18:30:59.576Z,3.63
2022-11-15T18:33:45.566Z,3.67
2022-11-15T18:36:31.028Z,3.88
2022-11-15T18:50:31.781Z,3.80
2022-11-15T18:53:17.449Z,3.50
2022-11-15T18:56:06.957Z,3.35
2022-11-15T18:58:55.999Z,3.78
2022-11-15T19:01:44.054Z,3.70
2022-11-15T19:04:29.209Z,3.83
2022-11-15T19:07:14.249Z,4.22
2022-11-15T19:09:59.639Z,4.30
2022-11-15T19:12:44.468Z,3.95
2022-11-15T19:15:30.981Z,3.92
2022-11-15T19:18:16.312Z,3.90
2022-11-15T19:21:06.414Z,4.28
2022-11-15T19:23:51.997Z,3.80
2022-11-15T19:26:37.183Z,5.30
2022-11-15T19:29:28.386Z,4.40
2022-11-15T19:32:13.316Z,4.22
2022-11-15T19:34:58.209Z,3.83
2022-11-15T19:37:43.096Z,4.00
2022-11-15T19:40:28.660Z,3.33
2022-11-15T19:43:13.914Z,3.83
2022-11-15T19:46:02.479Z,4.00
2022-11-15T19:48:48.266Z,18.27
2022-11-15T19:51:33.598Z,6.45
2022-11-15T19:54:18.740Z,9.27
2022-11-15T19:57:04.222Z,3.88
2022-11-15T19:59:48.918Z,3.90
2022-11-15T20:02:33.730Z,3.58
2022-11-15T20:05:19.200Z,3.60
2022-11-15T20:08:04.337Z,3.80
2022-11-15T20:10:49.346Z,3.70
2022-11-15T20:13:34.484Z,3.45
2022-11-15T20:16:22.206Z,3.80
2022-11-15T20:19:07.166Z,3.67
2022-11-15T20:21:52.263Z,3.58
2022-11-15T20:24:37.228Z,3.90
2022-11-15T20:27:21.968Z,3.85
2022-11-15T20:30:07.407Z,3.70
2022-11-15T20:32:52.662Z,3.55
2022-11-15T20:35:37.682Z,4.03
2022-11-15T20:38:23.503Z,3.72
2022-11-15T20:41:08.995Z,3.50
2022-11-15T20:43:54.053Z,3.67
2022-11-15T20:46:39.041Z,3.55
2022-11-15T20:49:24.384Z,3.85
2022-11-15T20:52:09.794Z,3.55
2022-11-15T20:54:57.938Z,3.55
2022-11-15T20:57:42.927Z,3.17
2022-11-15T21:00:28.045Z,2.92
2022-11-15T21:03:14.669Z,3.50
2022-11-15T21:06:00.555Z,25.27
2022-11-15T21:08:45.607Z,18.17
2022-11-15T21:11:31.902Z,3.40
2022-11-15T21:14:29.040Z,3.38
2022-11-15T21:17:15.628Z,3.38
2022-11-15T21:20:07.034Z,3.38
2022-11-15T21:22:53.863Z,3.17
2022-11-15T21:25:47.657Z,3.17
2022-11-15T21:28:32.966Z,2.90
2022-11-15T21:31:18.049Z,3.38
2022-11-15T21:34:04.900Z,3.20
2022-11-15T21:36:56.148Z,3.20
2022-11-15T21:39:41.051Z,3.05
2022-11-15T21:42:26.111Z,3.25
2022-11-15T21:45:11.192Z,3.30
2022-11-15T21:48:02.244Z,2.80
2022-11-15T21:50:58.043Z,3.40
2022-11-15T21:53:44.924Z,3.35
2022-11-15T21:56:31.921Z,3.60
2022-11-15T21:59:18.941Z,3.20
2022-11-15T22:02:12.106Z,3.42
2022-11-15T22:04:57.195Z,3.55
2022-11-15T22:07:42.230Z,3.63
2022-11-15T22:10:28.928Z,3.72
2022-11-15T22:13:14.116Z,3.65
2022-11-15T22:15:59.897Z,3.38
2022-11-15T22:18:44.913Z,3.72
2022-11-15T22:21:30.658Z,3.58
2022-11-15T22:24:16.152Z,3.58
2022-11-15T22:27:03.112Z,3.95
2022-11-15T22:29:54.494Z,55.47
2022-11-15T22:32:39.469Z,7.05
2022-11-15T22:35:27.453Z,5.03
2022-11-15T22:38:12.943Z,5.10
2022-11-15T22:40:58.519Z,5.40
2022-11-15T22:43:43.551Z,5.00
2022-11-15T22:46:31.465Z,5.28
2022-11-15T22:49:16.602Z,5.90
2022-11-15T22:52:04.756Z,5.45
2022-11-15T22:54:51.169Z,5.80
2022-11-15T22:57:36.548Z,6.03
2022-11-15T23:00:21.940Z,5.93
2022-11-15T23:03:07.238Z,5.90
2022-11-15T23:05:52.675Z,5.90
2022-11-15T23:08:38.299Z,5.57
2022-11-15T23:11:23.811Z,5.60
2022-11-15T23:14:08.709Z,5.90
2022-11-15T23:16:53.831Z,5.70
2022-11-15T23:19:38.839Z,5.85
2022-11-15T23:22:23.854Z,5.80
2022-11-15T23:25:09.125Z,6.05
2022-11-15T23:27:54.342Z,5.10
2022-11-15T23:30:39.228Z,5.78
2022-11-15T23:33:24.646Z,6.05
2022-11-15T23:36:09.668Z,6.30
2022-11-15T23:38:55.579Z,6.03
2022-11-15T23:41:40.467Z,5.75
2022-11-15T23:44:25.916Z,6.57
2022-11-15T23:47:10.911Z,6.80
2022-11-15T23:49:55.864Z,6.72
2022-11-15T23:52:40.656Z,6.22
2022-11-15T23:55:25.887Z,6.78
2022-11-15T23:58:10.802Z,6.68
